Data Trawler - Search Deployments

NCMI Information and Data Centre  »  Applications  »  Data Trawler
Please login if you have access to particular applications.
Username: Password:

Search for deployments by survey, gear or within comments.

Deployment count for each survey, component or action is shown in ().

Surveys(s)
Deployment Type(s)
Gear(s)
Search for - within subject, event identifier, comments etc.(case insensitive)
Highlight matches

Deployments by start time:- Click on column header to sort. Use link on 'Deployment' to see full details. Use the CSV button at the bottom to export data (tab delimited).

SurveyDeployment OperationStationCastGearProject Start and end timesStart LocationEnd LocationDepthDescription
SS200510 [details] Underway System [details]   Air Temperature Sensor-HMP233,Barometer,Fluorometer WS3S-443P,Gyro-Generic SS-NF,Humidity Sensor-HMP233,Licor-UWQ 3708,RM Young 05103 wind monitor,RM Young 05103 wind monitor,Seapath 200,Seapath 200,Simrad EA500 Echosounder,ThermoSalinoGraph (TSG)-SS-SN 1777,ThermoSalinoGraph (TSG)-SS-SN 1777 2213 2005-11-17 02:31 2005-12-13 17:49 -32.0491 115.7457 -20.2473 115.2079
SS200510 [details] Multibeam echosounder [details]   EM300 Multibeam Echosounder 2005-11-17 22:29 2005-12-13 22:17 -32.0449 115.7117 -20.3119 116.0487 2872.1
SS200510 [details] Catch [details] 2   2213 2005-11-18 09:56 2005-11-18 10:16 -31.7243 115.2440 -31.7184 115.2411 102.3 Area: Two Rocks Transect name: T4 100
SS200510 [details] Catch [details] 3   2213 2005-11-18 10:26 -31.6231 114.9660 404.3 Area: Two Rocks Transect name: T4 400
SS200510 [details] Catch [details] 4   2213 2005-11-18 16:51 2005-11-18 17:51 -31.6180 114.9720 -31.6231 114.9660 404.3 Area: Two Rocks Transect name: T4 400
SS200510 [details] Catch [details] 5   Sherman epibenthic Sled 2213 2005-11-18 19:42 2005-11-18 20:39 -31.6036 114.9850 -31.6103 114.9790 326.7 Area: Two Rocks Transect name: T4 400
SS200510 [details] Catch [details] 6   Sherman epibenthic Sled 2213 2005-11-18 21:20 2005-11-18 22:04 -31.6088 114.9810 -31.6173 114.9710 370.4 Area: Two Rocks Transect name: T4 400
SS200510 [details] Catch [details] 7   Sherman epibenthic Sled 2213 2005-11-18 23:43 2005-11-19 01:03 -31.6800 114.8440 -31.6851 114.8460 688.4 Area: Two Rocks Transect name: T4 700
SS200510 [details] Catch [details] 8   2213 2005-11-19 03:20 -31.6808 114.8460 -31.6825 114.8490 682.7 Area: Two Rocks Transect name: T4 700
SS200510 [details] Catch [details] 9   Sherman epibenthic Sled 2213 2005-11-19 06:18 -31.7229 114.7450 -31.7261 114.7560 1012.4 Area: Two Rocks Transect name: T4 1000
SS200510 [details] Catch [details] 10   Sherman epibenthic Sled 2213 2005-11-19 08:03 2005-11-19 10:15 -31.7270 114.7600 -31.7357 114.7930 988 Area: Two Rocks Transect name: T4 1000
SS200510 [details] Catch [details] 11   Sherman epibenthic Sled 2213 2005-11-19 12:46 2005-11-19 13:10 -31.6242 115.0040 -31.6285 115.0030 210.3 Area: Two Rocks Transect name: T4 200
SS200510 [details] Catch [details] 12   Sherman epibenthic Sled 2213 2005-11-19 15:58 2005-11-19 16:57 -31.9200 115.0250 -31.9230 115.0130 484.4 Area: Perth Canyon Transect name: target 1
SS200510 [details] Catch [details] 13   2213 2005-11-20 01:03 -33.0084 114.5710 -33.0020 114.5750 420.5 Area: Bunbury Transect name: L13 400
SS200510 [details] Catch [details] 14   Sherman epibenthic Sled 2213 2005-11-20 04:06 2005-11-20 04:30 -33.0364 114.8200 -33.0378 114.8130 99.3 Area: Bunbury Transect name: L13 100
SS200510 [details] Catch [details] 15   Sherman epibenthic Sled 2213 2005-11-20 17:02 2005-11-20 17:34 -33.9800 114.7340 -33.9837 114.7350 96.7 Area: Mentelle Transect name: L14 100
SS200510 [details] Catch [details] 16   2213 2005-11-20 20:35 2005-11-20 21:22 -34.0109 114.4430 -34.0158 114.4410 489.8 Area: Mentelle Transect name: L14 400
SS200510 [details] Catch [details] 17   2213 2005-11-21 07:08 2005-11-21 08:05 -35.0696 115.3360 -35.0707 115.3480 379.5 Area: Pt d'Entrecasteaux Transect name: L15 400
SS200510 [details] Catch [details] 18   Sherman epibenthic Sled 2213 2005-11-21 10:05 2005-11-21 10:20 -34.8860 115.5070 -34.8839 115.4990 100 Area: Pt d'Entrecasteaux Transect name: L15 100
SS200510 [details] Catch [details] 19   2213 2005-11-22 00:21 2005-11-22 01:38 -35.3817 117.2070 539 Area: Pt Hillier Transect name: L16 400
SS200510 [details] Catch [details] 20   Sherman epibenthic Sled 2213 2005-11-22 02:07 2005-11-22 02:58 -35.3818 117.2030 -35.3822 117.1920 460.5 Area: Pt Hillier Transect name: L16 400
SS200510 [details] Catch [details] 21   Sherman epibenthic Sled 2213 2005-11-22 03:56 2005-11-22 05:11 -35.3566 117.2170 -35.3526 117.2200 95.7 Area: Pt Hillier Transect name: L16 100
SS200510 [details] Catch [details] 22   Sherman epibenthic Sled 2213 2005-11-22 11:24 -35.3350 118.2940 -35.3366 118.2900 99.9 Area: Albany Transect name: T6 100
SS200510 [details] Catch [details] 23   Sherman epibenthic Sled 2213 2005-11-22 17:41 2005-11-22 18:52 -35.3925 118.3090 -35.4012 118.3060 775.8 Area: Albany Transect name: T6 700
SS200510 [details] Catch [details] 24   2213 2005-11-22 19:44 2005-11-22 20:44 -35.3639 118.3090 -35.3698 118.2950 403.8 Area: Albany Transect name: T6 400
SS200510 [details] Catch [details] 25   2213 2005-11-22 21:31 -35.3647 118.3070 -35.3708 118.2930 407.4 Area: Albany Transect name: T6 400
SS200510 [details] Catch [details] 26   2213 2005-11-22 23:01 2005-11-22 23:39 -35.3397 118.3410 -35.3447 118.3290 213.2 Area: Albany Transect name: T6 200
SS200510 [details] Catch [details] 27   2213 2005-11-23 00:18 2005-11-23 01:20 -35.3715 118.3330 -35.3774 118.3210 695.3 Area: Albany Transect name: T6 700
SS200510 [details] Catch [details] 28   Sherman epibenthic Sled 2213 2005-11-23 02:08 -35.4341 118.3510 -35.4365 118.3440 921.9 Area: Albany Transect name: T6 1000
SS200510 [details] Catch [details] 29   2213 2005-11-23 06:05 2005-11-23 07:31 -35.3690 118.3350 -35.3753 118.3220 679.7 Area: Albany Transect name: T6 700
SS200510 [details] Catch [details] 30   Sherman epibenthic Sled 2213 2005-11-23 11:31 2005-11-23 11:44 -35.1790 118.6310 -35.1787 118.6320 107.3 Area: Bald Island Transect name: T7 100
SS200510 [details] Catch [details] 31   Sherman epibenthic Sled 2213 2005-11-23 12:00 2005-11-23 12:29 -35.1784 118.6320 -35.1778 118.6330 105.6 Area: Bald Island Transect name: T7 100
SS200510 [details] Catch [details] 32   2213 2005-11-23 13:40 2005-11-23 14:53 -35.2337 118.6640 -35.2279 118.6750 728.1 Area: Bald Island Transect name: T7 700
SS200510 [details] Catch [details] 33   Sherman epibenthic Sled 2213 2005-11-23 15:44 -35.2269 118.5950 -35.2292 118.5890 494.2 Area: Bald Island Transect name: T7 400
SS200510 [details] Catch [details] 34   2213 2005-11-23 17:34 2005-11-23 18:37 -35.2135 118.6510 -35.2040 118.6690 430.6 Area: Bald Island Transect name: T7 400
SS200510 [details] Catch [details] 35   Sherman epibenthic Sled 2213 2005-11-23 19:10 2005-11-23 19:37 -35.1907 118.6450 -35.1875 118.6500 156.6 Area: Bald Island Transect name: T7 200
SS200510 [details] Catch [details] 36   2213 2005-11-23 23:52 2005-11-24 01:31 -35.2815 118.7090 -35.2810 118.7090 980.1 Area: Bald Island Transect name: T7 1000
SS200510 [details] Catch [details] 38   Sherman epibenthic Sled 2213 2005-11-24 05:24 2005-11-24 05:48 -35.1901 118.6490 -35.1919 118.6460 168.6 Area: Bald Island Transect name: T7 200
SS200510 [details] Catch [details] 39   Sherman epibenthic Sled 2213 2005-11-24 13:36 2005-11-24 14:01 -35.1791 118.6230 -35.1799 118.6210 99.4 Area: Bald Island Transect name: T7 100
SS200510 [details] Catch [details] 40   Sherman epibenthic Sled 2213 2005-11-24 15:09 -35.2273 118.5940 -35.2301 118.5870 553.8 Area: Bald Island Transect name: T7 400
SS200510 [details] Catch [details] 41   2213 2005-11-24 17:31 -35.2713 118.7230 -35.2829 118.7190 980.4 Area: Bald Island Transect name: T7 1000
SS200510 [details] Catch [details] 42   Sherman epibenthic Sled 2213 2005-11-24 20:08 2005-11-24 21:39 -35.2698 118.7200 -35.2881 118.7190 999.3 Area: Bald Island Transect name: T7 1000
SS200510 [details] Catch [details] 43   Sherman epibenthic Sled 2213 2005-11-25 00:03 2005-11-25 01:29 -35.4176 118.3740 -35.4327 118.3660 1030.6 Area: Albany Transect name: T6 1000
SS200510 [details] Catch [details] 44   Sherman epibenthic Sled 2213 2005-11-25 02:01 2005-11-25 03:19 -35.4341 118.3500 -35.4374 118.3510 915.5 Area: Albany Transect name: T6 1000
SS200510 [details] CTD Cast [details] 45   Cast 2 CTD 20 - SN 0552,Conductivity CTD 20-SN 2594,Fluorometer CTD 20-Seatech 142S,Licor CTD 20-SN 4059,Pressure CTD 20-SN 75638,Temperature CTD 20-SN 2466 2213 2005-11-25 05:34 2005-11-25 06:13 -35.4368 118.3506 -35.4364 118.3505 850
SS200510 [details] CTD Cast [details] 46   Cast 3 CTD 20 - SN 0552,Conductivity CTD 20-SN 2594,Fluorometer CTD 20-Seatech 142S,Licor CTD 20-SN 4059,Pressure CTD 20-SN 75638,Temperature CTD 20-SN 2466 2213 2005-11-25 07:00 2005-11-25 07:48 -35.4313 118.3655 -35.4315 118.3654 970
SS200510 [details] Catch [details] 47   Sherman epibenthic Sled 2213 2005-11-25 08:58 -35.3546 118.2990 -35.3558 118.2960 179.4 Area: Albany Transect name: T6 200
SS200510 [details] Catch [details] 48   2213 2005-11-25 11:10 2005-11-25 12:44 -35.4183 118.3730 -35.4260 118.3680 1021.1 Area: Albany Transect name: T6 1000
SS200510 [details] Catch [details] 49   Sherman epibenthic Sled 2213 2005-11-25 13:01 2005-11-25 15:00 -35.4310 118.3480 -35.4368 118.3510 925.2 Area: Albany Transect name: T6 1000
SS200510 [details] Catch [details] 50   Sherman epibenthic Sled 2213 2005-11-25 16:42 -35.3061 118.3770 -35.3079 118.3720 95.4 Area: Albany Transect name: T6 100
SS200510 [details] Catch [details] 51   Sherman epibenthic Sled 2213 2005-11-26 05:06 2005-11-26 06:59 -35.5238 117.2130 -35.5337 117.2380 1080 Area: Pt Hillier Transect name: L16 1000
SS200510 [details] Catch [details] 52   2213 2005-11-26 13:07 -35.5194 117.2030 -35.5252 117.2170 1076.1 Area: Pt Hillier Transect name: L16 1000
SS200510 [details] Catch [details] 54   2213 2005-11-26 19:27 2005-11-26 21:07 -35.5227 117.2110 -35.5261 117.2300 1110 Area: Pt Hillier Transect name: L16 1000
SS200510 [details] Catch [details] 55   Sherman epibenthic Sled 2213 2005-11-27 02:05 2005-11-27 02:20 -35.3552 117.2150 -35.3559 117.2170 94.4 Area: Pt Hillier Transect name: L16 100
SS200510 [details] Catch [details] 56   Sherman epibenthic Sled 2213 2005-11-27 02:43 2005-11-27 02:58 -35.3553 117.2160 -35.3547 117.2200 92 Area: Pt Hillier Transect name: L16 100
SS200510 [details] Catch [details] 57   Sherman epibenthic Sled 2213 2005-11-27 03:28 2005-11-27 03:50 -35.3735 117.1970 -35.3734 117.2040 196.2 Area: Pt Hillier Transect name: L16 200
SS200510 [details] Catch [details] 59   Smith-McIntyre Grab 0.1cu.m. 2213 2005-11-27 18:01 2005-11-27 18:01 -34.8188 115.5520 50 Area: Pt d'Entrecasteaux Transect name: L15 50
SS200510 [details] Catch [details] 60   Smith-McIntyre Grab 0.1cu.m. 2213 2005-11-27 18:47 2005-11-27 18:52 -34.8179 115.5530 50 Area: Pt d'Entrecasteaux Transect name: L15 50
SS200510 [details] Catch [details] 61   Smith-McIntyre Grab 0.1cu.m. 2213 2005-11-27 18:58 2005-11-27 19:01 -34.8188 115.5520 50 Area: Pt d'Entrecasteaux Transect name: L15 50
SS200510 [details] Catch [details] 62   Smith-McIntyre Grab 0.1cu.m. 2213 2005-11-27 19:05 2005-11-27 19:09 -34.8188 115.5520 50 Area: Pt d'Entrecasteaux Transect name: L15 50
SS200510 [details] Catch [details] 63   2213 2005-11-28 03:49 2005-11-28 04:42 -34.0177 114.4400 -34.0197 114.4390 528.4 Area: Mentelle Transect name: L14 400
SS200510 [details] Catch [details] 64   2213 2005-11-28 05:02 2005-11-28 06:05 -34.0213 114.4390 -34.0113 114.4430 529.3 Area: Mentelle Transect name: L14 400
SS200510 [details] Catch [details] 65   Smith-McIntyre Grab 0.1cu.m. 2213 2005-11-28 08:42 -34.0464 114.8480 50 Area: Mentelle Transect name: L15 50
SS200510 [details] Catch [details] 66   Smith-McIntyre Grab 0.1cu.m. 2213 2005-11-28 08:51 -34.0461 114.8490 50 Area: Mentelle Transect name: L15 50
SS200510 [details] Catch [details] 67   2213 2005-11-28 17:19 2005-11-28 18:21 -33.0097 114.5700 -32.9937 114.5820 423.1 Area: Bunbury Transect name: L13 400
SS200510 [details] Catch [details] 68   2213 2005-11-29 01:36 2005-11-29 02:35 -31.9924 115.1830 -32.0020 115.1780 508.1 Area: Perth Canyon Transect name: PC 400
SS200510 [details] Catch [details] 69   Sherman epibenthic Sled 2213 2005-11-29 03:31 2005-11-29 03:52 -31.9210 115.2020 -31.9241 115.1960 232.1 Area: Perth Canyon Transect name: PC 200
SS200510 [details] Catch [details] 70   Sherman epibenthic Sled 2213 2005-11-29 04:54 2005-11-29 14:00 -31.9658 115.1050 -31.9431 115.1290 1134.6 Area: Perth Canyon Transect name: PC 1000
SS200510 [details] Catch [details] 71   2213 2005-11-29 14:35 -31.9715 115.1000 -31.9552 115.1140 1050.2 Area: Perth Canyon Transect name: PC 1000
SS200510 [details] Catch [details] 72   Sherman epibenthic Sled 2213 2005-11-29 18:31 2005-11-29 20:47 -31.9872 115.0390 -32.0038 115.0370 1584.4 Area: Perth Canyon Transect name: PC 1500
SS200510 [details] Catch [details] 73   2213 2005-11-29 22:14 2005-11-29 23:38 -31.9650 115.1050 -31.9497 115.1180 1169.6 Area: Perth Canyon Transect name: PC 1000
SS200510 [details] CTD Cast [details] 74   Cast 5 CTD 20 - SN 0552,Conductivity CTD 20-SN 2594,Fluorometer CTD 20-Seatech 142S,Licor CTD 20-SN 4059,Pressure CTD 20-SN 75638,Temperature CTD 20-SN 2466 2213 2005-11-30 00:53 2005-11-30 02:03 -31.9973 115.0386 -31.9974 115.0383 1572
SS200510 [details] ADCP Data [details]   RDI Ocean Surveyor Acoustic Doppler current profiler 2213 2005-12-01 06:49 2005-12-13 17:53 -31.1885 114.9973 -20.2465 115.2231 647
SS200510 [details] Catch [details] 75   2213 2005-12-01 09:16 2005-12-01 10:10 -31.0125 114.8250 -31.0046 114.8230 394.3 Area: Lancelin Transect name: L11 400
SS200510 [details] Catch [details] 76   Sherman epibenthic Sled 2213 2005-12-01 11:36 2005-12-01 11:59 -30.9913 114.9330 -30.9860 114.9310 100 Area: Lancelin Transect name: L11 100
SS200510 [details] Catch [details] 77   Plankton net 2213 2005-12-01 13:08 2005-12-01 13:23 -30.8302 114.8740 -30.8204 114.8760 100 Area: Lancelin Transect name: L11
SS200510 [details] Catch [details] 78   2213 2005-12-01 20:29 2005-12-01 21:16 -29.8677 114.3870 -29.8739 114.3980 413.9 Area: Jurien Bay Transect name: L10 400
SS200510 [details] Catch [details] 79   Plankton net 2213 2005-12-01 21:38 2005-12-01 21:54 -29.8758 114.4060 -29.8697 114.4010 370.4 Area: Jurien Bay Transect name: L10 400
SS200510 [details] Catch [details] 80   Sherman epibenthic Sled 2213 2005-12-01 22:31 2005-12-01 23:10 -29.8419 114.3620 -29.8502 114.3670 427.3 Area: Jurien Bay Transect name: L10 400
SS200510 [details] CTD Cast [details] 81   Cast 6 CTD 20 - SN 0552,Conductivity CTD 20-SN 2594,Fluorometer CTD 20-Seatech 142S,Licor CTD 20-SN 4059,Pressure CTD 20-SN 75638,Temperature CTD 20-SN 2466 2213 2005-12-02 00:08 2005-12-02 00:33 -29.8511 114.3716 -29.8526 114.3708 350
SS200510 [details] Catch [details] 82   Sherman epibenthic Sled 2213 2005-12-02 01:48 2005-12-02 02:09 -29.8029 114.4390 -29.8038 114.4360 91.7 Area: Jurien Bay Transect name: L10 100
SS200510 [details] Catch [details] 83   Sherman epibenthic Sled 2213 2005-12-02 02:50 2005-12-02 03:05 -29.8070 114.4310 -29.8091 114.4320 113.6 Area: Jurien Bay Transect name: L10 100
SS200510 [details] Catch [details] 84   2213 2005-12-02 11:27 2005-12-02 13:09 -29.0609 113.6360 -29.0781 113.6300 1036.7 Area: Abrolhos Transect name: L9 1000
SS200510 [details] Catch [details] 85   2213 2005-12-02 14:13 2005-12-02 15:24 -29.0099 113.7130 -29.0252 113.7220 703.8 Area: Abrolhos Transect name: L9 700
SS200510 [details] Catch [details] 86   Plankton net 2213 2005-12-02 16:00 2005-12-02 16:17 -29.0406 113.7210 -29.0367 113.7220 736.8 Area: Abrolhos Transect name: L9 700
SS200510 [details] Catch [details] 87   Sherman epibenthic Sled 2213 2005-12-02 17:19 2005-12-02 18:39 -28.9534 113.6790 -28.9718 113.6920 685.8 Area: Abrolhos Transect name: L9 700
SS200510 [details] Catch [details] 88   Sherman epibenthic Sled 2213 2005-12-02 22:16 2005-12-02 23:05 -29.0127 113.7790 -29.0230 113.7850 439.1 Area: Abrolhos Transect name: L9 400
SS200510 [details] CTD Cast [details] 89   Cast 7 CTD 20 - SN 0552,Conductivity CTD 20-SN 2594,Fluorometer CTD 20-Seatech 142S,Licor CTD 20-SN 4059,Pressure CTD 20-SN 75638,Temperature CTD 20-SN 2466 2213 2005-12-03 00:11 2005-12-03 00:40 -29.0014 113.7708 -29.0027 113.7731 390
SS200510 [details] Catch [details] 90   2213 2005-12-03 01:51 2005-12-03 02:31 -28.9900 113.7650 -28.9967 113.7690 407.5 Area: Abrolhos Transect name: L9 400
SS200510 [details] Catch [details] 91   2213 2005-12-03 03:11 2005-12-03 03:45 -28.9888 113.7840 -28.9964 113.7880 182.6 Area: Abrolhos Transect name: L9 200
SS200510 [details] Catch [details] 92   Sherman epibenthic Sled 2213 2005-12-03 04:58 2005-12-03 05:16 -28.9714 113.8320 -28.9744 113.8350 86.5 Area: Abrolhos Transect name: L9 100
SS200510 [details] Catch [details] 93   Sherman epibenthic Sled 2213 2005-12-03 15:17 2005-12-03 15:44 -28.9997 113.8470 -28.9964 113.8440 113.8 Area: Abrolhos Transect name: L9 100
SS200510 [details] Catch [details] 94   Plankton net 2213 2005-12-03 16:18 2005-12-03 16:35 -28.9551 113.8070 -28.9486 113.8020 106.7 Area: Abrolhos Transect name: L9 100
SS200510 [details] Catch [details] 95   Sherman epibenthic Sled 2213 2005-12-03 20:46 2005-12-03 21:41 -28.4895 113.4190 -28.5010 113.4250 430.6 Area: Abrolhos Transect name: Tran 400
SS200510 [details] Catch [details] 96   Sherman epibenthic Sled 2213 2005-12-04 04:54 2005-12-04 05:09 -27.8080 113.2970 -27.8126 113.2990 123 Area: Kalbarri Transect name: L8 100
SS200510 [details] CTD Cast [details] 97   Cast 8 CTD 20 - SN 0552,Conductivity CTD 20-SN 2594,Fluorometer CTD 20-Seatech 142S,Licor CTD 20-SN 4059,Pressure CTD 20-SN 75638,Temperature CTD 20-SN 2466 2213 2005-12-04 06:51 2005-12-04 07:13 -27.8051 113.0373 -27.8056 113.0360 390
SS200510 [details] Catch [details] 98   2213 2005-12-04 08:35 2005-12-04 09:40 -27.9351 113.0810 -27.9441 113.0880 428 Area: Kalbarri Transect name: L8 400
SS200510 [details] Catch [details] 99   2213 2005-12-04 12:44 2005-12-04 13:26 -27.9286 113.1380 -27.9337 113.1440 252.9 Area: Kalbarri Transect name: L8 250
SS200510 [details] Catch [details] 100   Plankton net 2213 2005-12-04 16:19 2005-12-04 16:36 -27.9340 113.0640 454.7 Area: Kalbarri Transect name: L8 400
SS200510 [details] Catch [details] 101   Sherman epibenthic Sled 2213 2005-12-04 19:22 2005-12-04 20:13 -27.9399 113.0500 -27.9278 113.0420 480 Area: Kalbarri Transect name: L8 400
SS200510 [details] Catch [details] 102   Sherman epibenthic Sled 2213 2005-12-04 23:47 2005-12-05 00:03 -27.8134 113.3110 -27.8183 113.3120 98 Area: Kalbarri Transect name: L8 100
SS200510 [details] Catch [details] 104   Sherman epibenthic Sled 2213 2005-12-05 07:30 2005-12-05 07:53 -27.0517 113.1010 -27.0490 113.1000 97.1 Area: Zuytdorp Transect name: L7 100
SS200510 [details] Catch [details] 105   2213 2005-12-05 10:56 -27.1335 112.7510 -27.1466 112.7620 414 Area: Zuytdorp Transect name: L7 400
SS200510 [details] Catch [details] 106   Plankton net 2213 2005-12-05 12:12 2005-12-05 12:26 -27.1568 112.7650 409.2 Area: Zuytdorp Transect name: L7 400
SS200510 [details] CTD Cast [details] 107   Cast 9 CTD 20 - SN 0552,Conductivity CTD 20-SN 2594,Fluorometer CTD 20-Seatech 142S,Licor CTD 20-SN 4059,Pressure CTD 20-SN 75638,Temperature CTD 20-SN 2466 2213 2005-12-05 16:08 2005-12-05 16:24 -27.0814 112.9317 -27.0815 112.9320 178
SS200510 [details] Catch [details] 108   Smith-McIntyre Grab 0.1cu.m. 2213 2005-12-05 16:39 2005-12-05 18:00 -27.0833 112.9300 193.6 Area: Zuytdorp Transect name: L7 200
SS200510 [details] Catch [details] 109   Smith-McIntyre Grab 0.1cu.m. 2213 2005-12-05 18:31 2005-12-05 18:43 -27.0833 112.9300 193.6 Area: Zuytdorp Transect name: L7 200
SS200510 [details] Catch [details] 110   2213 2005-12-05 20:01 2005-12-05 20:21 -27.0520 113.0810 -27.0480 113.0800 106.3 Area: Zuytdorp Transect name: L7 100
SS200510 [details] CTD Cast [details] 111   Cast 10 CTD 20 - SN 0552,Conductivity CTD 20-SN 2594,Fluorometer CTD 20-Seatech 142S,Licor CTD 20-SN 4059,Pressure CTD 20-SN 75638,Temperature CTD 20-SN 2466 2213 2005-12-06 05:54 2005-12-06 06:03 -25.8684 112.8049 -25.8682 112.8051 76
SS200510 [details] Catch [details] 112   Sherman epibenthic Sled 2213 2005-12-06 07:25 2005-12-06 07:44 -25.9076 112.8230 -25.9073 112.8290 100 Area: Shark Bay Transect name: L6 100
SS200510 [details] Catch [details] 113   2213 2005-12-06 11:53 -25.9277 112.2430 -25.9381 112.2460 406.9 Area: Shark Bay Transect name: L6 400
SS200510 [details] Catch [details] 114   Plankton net 2213 2005-12-06 13:11 2005-12-06 13:26 -25.9511 112.2480 418.8 Area: Shark Bay Transect name: L6 400
SS200510 [details] Catch [details] 115   Sherman epibenthic Sled 2213 2005-12-06 18:32 2005-12-06 18:51 -25.9297 112.6800 -25.9330 112.6810 120 Area: Shark Bay Transect name: L6 120
SS200510 [details] Catch [details] 116   2213 2005-12-06 20:49 2005-12-06 21:08 -25.9022 112.8290 -25.9064 112.8270 100 Area: Shark Bay Transect name: L6 100
SS200510 [details] Catch [details] 118   2213 2005-12-06 21:25 2005-12-06 21:50 -25.9058 112.8280 -25.8996 112.8300 100 Area: Shark Bay Transect name: L6 100
SS200510 [details] Catch [details] 117   Smith-McIntyre Grab 0.1cu.m. 2213 2005-12-06 22:16 2005-12-06 22:20 -25.8955 112.8310 100 Area: Shark Bay Transect name: L6 100
SS200510 [details] CTD Cast [details] 119   Cast 11 CTD 20 - SN 0552,Conductivity CTD 20-SN 2594,Fluorometer CTD 20-Seatech 142S,Licor CTD 20-SN 4059,Pressure CTD 20-SN 75638,Temperature CTD 20-SN 2466 2213 2005-12-07 06:12 2005-12-07 06:26 -24.8027 112.6256 88
SS200510 [details] Catch [details] 120   Sherman epibenthic Sled 2213 2005-12-07 08:42 2005-12-07 09:00 -24.6194 112.6660 -24.6228 112.6660 100 Area: Carnarvon Transect name: L5 100
SS200510 [details] Catch [details] 121   2213 2005-12-07 11:43 2005-12-07 12:42 -24.5591 112.2580 -24.5689 112.2650 388 Area: Carnarvon Transect name: L5 400
SS200510 [details] Catch [details] 122   2213 2005-12-07 13:35 2005-12-07 14:29 -24.5520 112.2520 -24.5634 112.2530 403.5 Area: Carnarvon Transect name: L5 400
SS200510 [details] Catch [details] 123   Plankton net 2213 2005-12-07 14:43 2005-12-07 15:01 -24.5652 112.2590 382.7 Area: Carnarvon Transect name: L5 400
SS200510 [details] Catch [details] 124   2213 2005-12-07 17:45 2005-12-07 18:15 -24.6245 112.6710 -24.6288 112.6690 100 Area: Carnarvon Transect name: L5 100
SS200510 [details] Catch [details] 125   Smith-McIntyre Grab 0.1cu.m. 2213 2005-12-07 18:38 2005-12-07 18:42 -24.6411 112.6710 100 Area: Carnarvon Transect name: L5 100
SS200510 [details] Catch [details] 126   Sherman epibenthic Sled 2213 2005-12-08 00:13 2005-12-08 00:36 -24.0437 113.0270 -24.0473 113.0290 100 Area: Red Bluff Transect name: L4 100
SS200510 [details] Catch [details] 127   Smith-McIntyre Grab 0.1cu.m. 2213 2005-12-08 01:24 2005-12-08 01:27 -24.0406 113.0380 100 Area: Red Bluff Transect name: L4 100
SS200510 [details] Catch [details] 128   2213 2005-12-08 04:49 2005-12-08 05:43 -23.9851 112.5450 -23.9933 112.5370 402.2 Area: Red Bluff Transect name: L4 400
SS200510 [details] CTD Cast [details] 129   Cast 12 CTD 20 - SN 0552,Conductivity CTD 20-SN 2594,Fluorometer CTD 20-Seatech 142S,Licor CTD 20-SN 4059,Pressure CTD 20-SN 75638,Temperature CTD 20-SN 2466 2213 2005-12-08 06:14 2005-12-08 06:35 -24.0064 112.5339 374
SS200510 [details] Catch [details] 130   2213 2005-12-08 07:13 2005-12-08 08:08 -23.9866 112.5340 -23.9954 112.5290 411.3 Area: Red Bluff Transect name: L4 400
SS200510 [details] Catch [details] 131   Plankton net 2213 2005-12-08 08:21 2005-12-08 08:37 -24.0066 112.5250 408.4 Area: Red Bluff Transect name: L4 400
SS200510 [details] Catch [details] 132   2213 2005-12-08 12:17 2005-12-08 12:48 -24.0315 113.0310 -24.0345 113.0270 100 Area: Red Bluff Transect name: L4 100
SS200510 [details] Catch [details] 133   2213 2005-12-08 13:00 2005-12-08 13:26 -24.0286 113.0340 -24.0314 113.0300 101 Area: Red Bluff Transect name: L4 100
SS200510 [details] Catch [details] 134   Plankton net 2213 2005-12-08 21:04 2005-12-08 21:16 -22.8308 113.5170 100 Area: Point Cloates Transect name: L3 100
SS200510 [details] Catch [details] 135   2213 2005-12-08 22:14 2005-12-08 22:40 -22.8487 113.5110 -22.8583 113.5140 100 Area: Point Cloates Transect name: L3 100
SS200510 [details] Catch [details] 136   Smith-McIntyre Grab 0.1cu.m. 2213 2005-12-08 23:11 2005-12-08 23:15 -22.8513 113.5130 100 Area: Point Cloates Transect name: L3 100
SS200510 [details] Catch [details] 137   2213 2005-12-09 00:43 2005-12-09 01:31 -22.8468 113.3380 -22.8538 113.3330 430.2 Area: Point Cloates Transect name: L3 400
SS200510 [details] CTD Cast [details] 138   Cast 14 CTD 20 - SN 0552,Conductivity CTD 20-SN 2594,Fluorometer CTD 20-Seatech 142S,Licor CTD 20-SN 4059,Pressure CTD 20-SN 75638,Temperature CTD 20-SN 2466 2213 2005-12-09 02:06 2005-12-09 02:32 -22.8485 113.3367 -22.8456 113.3354 400
SS200510 [details] Catch [details] 139   Sherman epibenthic Sled 2213 2005-12-09 03:46 2005-12-09 04:04 -22.8504 113.5110 -22.8554 113.5130 100 Area: Point Cloates Transect name: L3 100
SS200510 [details] Catch [details] 140   Sherman epibenthic Sled 2213 2005-12-09 07:12 2005-12-09 08:37 -22.6177 113.4840 -22.6200 113.4760 381.8 Area: Point Cloates Transect name: L3 400
SS200510 [details] Catch [details] 141   2213 2005-12-09 13:14 2005-12-09 13:45 -22.0743 113.8140 -22.0784 113.8130 102.2 Area: Ningaloo South Transect name: T1 100
SS200510 [details] Catch [details] 142   2213 2005-12-09 14:54 -22.0151 113.6510 -22.0235 113.6570 1084.9 Area: Ningaloo South Transect name: T1 1000
SS200510 [details] Catch [details] 143   Sherman epibenthic Sled 2213 2005-12-09 18:55 2005-12-09 19:20 -22.0365 113.8220 -22.0389 113.8220 105.7 Area: Ningaloo South Transect name: T1 100
SS200510 [details] Catch [details] 144   Sherman epibenthic Sled 2213 2005-12-09 20:22 2005-12-09 20:42 -22.0667 113.8110 -22.0708 113.8150 106.1 Area: Ningaloo South Transect name: T1 150
SS200510 [details] Catch [details] 145   Plankton net 2213 2005-12-09 21:09 2005-12-09 21:21 -22.0830 113.8160 101.5 Area: Ningaloo South Transect name: T1 100
SS200510 [details] Catch [details] 146   2213 2005-12-09 21:42 2005-12-09 22:12 -22.0795 113.7960 -22.0873 113.7940 205.9 Area: Ningaloo South Transect name: T1 200
SS200510 [details] CTD Cast [details] 147   Cast 15 CTD 20 - SN 0552,Conductivity CTD 20-SN 2594,Fluorometer CTD 20-Seatech 142S,Licor CTD 20-SN 4059,Pressure CTD 20-SN 75638,Temperature CTD 20-SN 2466 2213 2005-12-10 06:30 2005-12-10 07:00 -22.0941 113.7551 -22.0934 113.7547 550
SS200510 [details] Catch [details] 148   2213 2005-12-10 07:43 2005-12-10 08:25 -22.0729 113.7560 -22.0828 113.7560 395.8 Area: Ningaloo South Transect name: T1 400
SS200510 [details] Catch [details] 149   2213 2005-12-10 08:50 2005-12-10 10:03 -22.0595 113.7290 -22.0671 113.7210 754.4 Area: Ningaloo South Transect name: T1 700
SS200510 [details] Catch [details] 150   2213 2005-12-10 10:54 2005-12-10 12:34 -22.0038 113.6790 -22.0209 113.6760 1009.9 Area: Ningaloo South Transect name: T1 1000
SS200510 [details] Catch [details] 151   2213 2005-12-10 13:35 2005-12-10 14:30 -22.0719 113.7560 -22.0809 113.7560 398.7 Area: Ningaloo South Transect name: T1 400
SS200510 [details] Catch [details] 152   2213 2005-12-10 15:41 2005-12-10 16:08 -21.9784 113.8200 -21.9842 113.8200 176.8 Area: Ningaloo North Transect name: T2 200
SS200510 [details] Catch [details] 153   2213 2005-12-10 20:15 2005-12-10 20:45 -21.9862 113.8200 -21.9965 113.8190 166 Area: Ningaloo North Transect name: T2 200
SS200510 [details] Catch [details] 154   2213 2005-12-10 21:45 2005-12-10 23:15 -21.9641 113.7640 -21.9684 113.7630 702.1 Area: Ningaloo North Transect name: T2 700
SS200510 [details] Catch [details] 155   Sherman epibenthic Sled 2213 2005-12-11 05:27 2005-12-11 05:45 -21.9584 113.8450 -21.9623 113.8430 105.7 Area: Ningaloo North Transect name: T2 100
SS200510 [details] Catch [details] 156   Sherman epibenthic Sled 2213 2005-12-11 06:10 2005-12-11 06:35 -21.9627 113.8430 -21.9662 113.8420 105.1 Area: Ningaloo North Transect name: T2 100
SS200510 [details] Catch [details] 157   2213 2005-12-11 08:18 2005-12-11 09:07 -21.9702 113.7930 -21.9792 113.7910 355.5 Area: Ningaloo North Transect name: T2 400
SS200510 [details] Catch [details] 158   2213 2005-12-11 09:40 2005-12-11 11:23 -21.9374 113.7230 -21.9459 113.7140 1056 Area: Ningaloo North Transect name: T2 1000
SS200510 [details] Catch [details] 159   2213 2005-12-11 12:52 2005-12-11 14:16 -21.9690 113.7610 -21.9784 113.7540 731.9 Area: Ningaloo North Transect name: T2 700
SS200510 [details] Catch [details] 160   2213 2005-12-11 15:06 2005-12-11 17:15 -21.9375 113.7260 -21.9501 113.7190 1050 Area: Ningaloo North Transect name: T2 1000
SS200510 [details] Catch [details] 161   Sherman epibenthic Sled 2213 2005-12-11 17:54 2005-12-11 19:30 -21.9448 113.7250 -21.9573 113.7150 1028.9 Area: Ningaloo North Transect name: T2 1000
SS200510 [details] Catch [details] 162   2213 2005-12-11 20:56 2005-12-11 21:18 -21.9781 113.8370 -21.9838 113.8350 107.1 Area: Ningaloo North Transect name: T2 100
SS200510 [details] Catch [details] 163   Sherman epibenthic Sled 2213 2005-12-11 22:06 2005-12-11 22:37 -21.9438 113.8410 -21.9515 113.8380 134.1 Area: Ningaloo North Transect name: T2 150
SS200510 [details] Catch [details] 164   Sherman epibenthic Sled 2213 2005-12-12 00:16 2005-12-12 00:46 -21.9615 113.8450 -21.9679 113.8370 113.9 Area: Ningaloo North Transect name: T2 100
SS200510 [details] Catch [details] 165   2213 2005-12-12 01:50 2005-12-12 02:38 -21.9702 113.7910 -21.9801 113.7850 381.7 Area: Ningaloo North Transect name: T2 400
SS200510 [details] Catch [details] 166   2213 2005-12-12 03:08 2005-12-12 04:00 -21.9689 113.7920 -21.9787 113.7860 373.1 Area: Ningaloo North Transect name: T2 400
SS200510 [details] CTD Cast [details] 167   Cast 16 CTD 20 - SN 0552,Conductivity CTD 20-SN 2594,Fluorometer CTD 20-Seatech 142S,Licor CTD 20-SN 4059,Pressure CTD 20-SN 75638,Temperature CTD 20-SN 2466 2213 2005-12-12 04:43 2005-12-12 05:14 -21.9564 113.7961 -21.9561 113.7956 506
SS200510 [details] Catch [details] 168   2213 2005-12-12 09:33 2005-12-12 11:35 -21.9178 113.6050 -21.9197 113.5830 1295 Area: Ningaloo North Transect name: T2 1200
SS200510 [details] Catch [details] 169   Sherman epibenthic Sled 2213 2005-12-13 00:24 2005-12-13 00:46 -21.0316 114.8920 -21.0344 114.8880 93 Area: Barrow Island Transect name: L1 100
SS200510 [details] Catch [details] 170   2213 2005-12-13 02:10 -20.9847 114.9070 -20.9945 114.9090 101 Area: Barrow Island Transect name: L1 100
SS200510 [details] Catch [details] 171   2213 2005-12-13 06:08 -21.0063 114.3810 -20.9957 114.3700 411.4 Area: Barrow Island Transect name: L1 400
SS200510 [details] Catch [details] 172   2213 2005-12-13 07:54 -21.0067 114.3810 -21.0007 114.3750 408 Area: Barrow Island Transect name: L1 400
SS200510 [details] CTD Cast [details] 173   Cast 17 CTD 20 - SN 0552,Conductivity CTD 20-SN 2594,Fluorometer CTD 20-Seatech 142S,Licor CTD 20-SN 4059,Pressure CTD 20-SN 75638,Temperature CTD 20-SN 2466 2213 2005-12-13 08:45 2005-12-13 09:00 -20.9910 114.3656 -20.9914 114.3637 360
SS200510 [details] Catch [details] 58   Smith-McIntyre Grab 0.1cu.m. 2213 -34.8258 115.5400 50 Area: Pt d'Entrecasteaux Transect name: L15 50

Save this list as

NCMI Information and Data Centre  »  Applications  »  Data Trawler